Time;durP1;ratioP1;P1;durP2;ratioP2;P2;SDS_P1;SDS_P2;PMS_P1;PMS_P2;Temp;Humidity;BMP_temperature;BMP_pressure;BME280_temperature;BME280_humidity;BME280_pressure;Samples;Min_cycle;Max_cycle;Signal;HPM_P1;HPM_P2
2021/12/11 08:54:27;;;;;;;5.25;4.75;;;13.60;72.80;;;;;;2299533;62;30033;-72
2021/12/11 08:56:54;;;;;;;5.55;5.05;;;13.70;71.80;;;;;;2291153;62;29884;-73
2021/12/11 08:59:24;;;;;;;6.30;5.30;;;13.70;72.80;;;;;;2291287;62;29963;-73
2021/12/11 09:01:55;;;;;;;5.75;5.20;;;13.70;73.50;;;;;;2283660;62;30128;-73
2021/12/11 09:04:25;;;;;;;5.20;4.70;;;13.80;74.00;;;;;;2283703;62;30195;-73
2021/12/11 09:07:25;;;;;;;5.90;5.15;;;13.80;74.40;;;;;;2291036;62;30032;-72
2021/12/11 09:10:10;;;;;;;5.13;4.47;;;13.90;74.60;;;;;;2281936;62;29982;-72
2021/12/11 09:12:42;;;;;;;5.70;4.60;;;14.00;74.90;;;;;;2284771;62;30120;-72
2021/12/11 09:15:19;;;;;;;6.45;4.80;;;14.00;74.90;;;;;;2283787;62;30410;-72
2021/12/11 09:18:02;;;;;;;4.93;4.50;;;14.10;74.90;;;;;;2284056;62;30276;-72
2021/12/11 09:20:37;;;;;;;4.82;4.43;;;14.10;74.40;;;;;;2291202;62;29920;-73
2021/12/11 09:23:07;;;;;;;4.78;4.32;;;14.20;75.00;;;;;;2283500;62;30745;-73
2021/12/11 09:25:43;;;;;;;4.85;4.20;;;14.20;74.90;;;;;;2291280;62;30013;-73
2021/12/11 09:28:18;;;;;;;5.30;4.72;;;14.20;74.90;;;;;;2291397;62;30011;-73
2021/12/11 09:31:04;;;;;;;4.53;4.05;;;14.30;74.40;;;;;;2283425;62;30000;-73
2021/12/11 09:33:36;;;;;;;5.22;4.72;;;14.30;73.60;;;;;;2290555;62;30212;-72
2021/12/11 09:36:33;;;;;;;6.00;4.72;;;14.30;74.50;;;;;;2283649;62;30192;-73
2021/12/11 09:39:11;;;;;;;4.95;4.45;;;14.30;73.10;;;;;;2290159;62;30035;-73
2021/12/11 09:41:37;;;;;;;5.45;4.40;;;14.30;74.40;;;;;;2283622;62;30118;-72
2021/12/11 09:44:33;;;;;;;4.68;4.20;;;14.30;74.50;;;;;;2283177;62;30680;-73
2021/12/11 09:47:15;;;;;;;4.70;4.30;;;14.30;73.30;;;;;;2283521;62;30549;-74
2021/12/11 09:49:44;;;;;;;4.82;4.43;;;14.30;73.40;;;;;;2283448;62;30184;-73
2021/12/11 09:52:23;;;;;;;5.05;4.55;;;14.30;74.00;;;;;;2283072;62;30166;-74
2021/12/11 09:55:01;;;;;;;5.32;4.82;;;14.40;73.80;;;;;;2284121;62;30017;-72
2021/12/11 09:57:31;;;;;;;4.55;3.92;;;14.40;73.10;;;;;;2290566;62;30429;-73
2021/12/11 09:59:57;;;;;;;4.18;3.85;;;14.40;73.50;;;;;;2290813;62;30048;-72
2021/12/11 10:02:29;;;;;;;4.47;4.00;;;14.50;73.40;;;;;;2290831;62;30272;-73
2021/12/11 10:05:01;;;;;;;4.72;4.32;;;14.50;73.20;;;;;;2273045;62;30266;-73
2021/12/11 10:07:39;;;;;;;;;;;14.50;73.00;;;;;;2285865;62;31244;-75
2021/12/11 10:10:21;;;;;;;5.13;3.85;;;14.50;71.40;;;;;;2285548;62;30170;-77
2021/12/11 10:12:50;;;;;;;4.53;4.13;;;14.50;72.30;;;;;;2284766;62;30234;-76
2021/12/11 10:15:20;;;;;;;4.68;4.20;;;14.50;72.80;;;;;;2277682;62;30097;-73
2021/12/11 10:17:55;;;;;;;5.68;4.10;;;14.50;72.80;;;;;;2277579;62;30241;-74
2021/12/11 10:20:30;;;;;;;5.10;4.03;;;14.40;73.50;;;;;;2283989;62;29969;-75
2021/12/11 10:22:58;;;;;;;4.45;4.05;;;14.40;72.80;;;;;;2285252;62;30165;-77
2021/12/11 10:25:34;;;;;;;4.63;4.20;;;14.40;72.90;;;;;;2278480;62;30065;-75
2021/12/11 10:28:02;;;;;;;5.40;4.88;;;14.30;72.80;;;;;;2285122;62;30057;-73
2021/12/11 10:30:29;;;;;;;5.13;4.63;;;14.40;72.80;;;;;;2277801;62;30044;-76
2021/12/11 10:32:55;;;;;;;5.35;4.10;;;14.30;72.70;;;;;;2284863;62;30259;-76
2021/12/11 10:35:26;;;;;;;4.43;3.90;;;14.40;72.70;;;;;;2277833;62;30177;-74
2021/12/11 10:37:52;;;;;;;4.32;3.97;;;14.40;72.60;;;;;;2285267;62;30172;-75
2021/12/11 10:40:31;;;;;;;4.20;3.80;;;14.30;72.60;;;;;;2270668;62;30019;-75
2021/12/11 10:43:03;;;;;;;5.10;3.95;;;14.40;72.30;;;;;;2285258;62;30189;-75
2021/12/11 10:45:30;;;;;;;5.18;3.95;;;14.40;72.50;;;;;;2278114;62;30182;-78
2021/12/11 10:48:01;;;;;;;4.30;3.90;;;14.40;72.50;;;;;;2281808;62;31159;-79
2021/12/11 10:50:33;;;;;;;4.13;3.63;;;14.40;72.40;;;;;;2278056;62;30468;-78
2021/12/11 10:52:59;;;;;;;3.97;3.60;;;14.40;72.40;;;;;;2277498;62;30618;-77
2021/12/11 10:55:32;;;;;;;4.88;4.15;;;14.50;72.40;;;;;;2277918;62;30089;-77
2021/12/11 10:58:09;;;;;;;4.30;3.88;;;14.50;72.30;;;;;;2285117;62;30275;-78
2021/12/11 11:00:38;;;;;;;3.95;3.55;;;14.50;72.30;;;;;;2277990;62;30098;-79
2021/12/11 11:03:06;;;;;;;3.78;3.47;;;14.50;72.40;;;;;;2277524;62;30049;-78
2021/12/11 11:05:32;;;;;;;4.30;3.90;;;14.40;72.30;;;;;;2277297;62;30094;-77
2021/12/11 11:07:58;;;;;;;4.88;3.90;;;14.40;72.30;;;;;;2270348;62;30248;-79
2021/12/11 11:10:28;;;;;;;4.30;3.90;;;14.50;72.40;;;;;;2285039;62;30222;-79
2021/12/11 11:12:56;;;;;;;4.10;3.70;;;14.50;72.20;;;;;;2277515;62;30147;-79
2021/12/11 11:15:22;;;;;;;5.03;3.72;;;14.50;72.20;;;;;;2277112;62;30125;-78
2021/12/11 11:17:49;;;;;;;4.95;3.80;;;14.50;72.20;;;;;;2284664;62;30131;-78
2021/12/11 11:20:16;;;;;;;5.57;3.95;;;14.50;72.20;;;;;;2284922;62;30216;-78
2021/12/11 11:22:43;;;;;;;4.63;4.10;;;14.50;72.20;;;;;;2284476;62;30120;-79
2021/12/11 11:25:19;;;;;;;4.50;3.67;;;14.50;72.30;;;;;;2284877;62;30137;-78
2021/12/11 11:27:45;;;;;;;4.88;3.92;;;14.50;72.10;;;;;;2277700;62;30147;-80
2021/12/11 11:30:15;;;;;;;5.72;4.18;;;14.50;72.20;;;;;;2277055;62;30172;-77
2021/12/11 11:32:41;;;;;;;4.13;3.72;;;14.50;72.20;;;;;;2284590;62;30175;-76
2021/12/11 11:35:12;;;;;;;4.40;3.70;;;14.50;72.10;;;;;;2284561;62;30010;-77
2021/12/11 11:37:38;;;;;;;4.22;3.70;;;14.50;72.10;;;;;;2270556;62;30070;-76
2021/12/11 11:40:07;;;;;;;6.25;4.15;;;14.50;72.10;;;;;;2284818;62;30165;-73
2021/12/11 11:42:33;;;;;;;4.18;3.72;;;14.50;72.10;;;;;;2284705;62;29941;-75
2021/12/11 11:45:02;;;;;;;4.50;4.00;;;14.50;72.20;;;;;;2284070;62;30145;-74
2021/12/11 11:47:28;;;;;;;4.38;3.97;;;14.50;72.30;;;;;;2269994;62;30002;-75
2021/12/11 11:49:58;;;;;;;4.47;4.03;;;14.50;72.30;;;;;;2277223;62;30185;-74
2021/12/11 11:52:25;;;;;;;4.65;3.80;;;14.50;72.30;;;;;;2284418;62;30149;-74
2021/12/11 11:54:53;;;;;;;7.55;4.03;;;14.50;72.30;;;;;;2284292;62;30825;-75
2021/12/11 11:57:30;;;;;;;13.23;11.05;;;14.50;72.30;;;;;;2277173;62;30607;-75
2021/12/11 11:59:58;;;;;;;17.73;9.65;;;14.50;70.40;;;;;;2284657;62;30050;-74
2021/12/11 12:02:27;;;;;;;13.02;6.18;;;14.30;70.40;;;;;;2279252;62;30043;-74
2021/12/11 12:04:54;;;;;;;5.00;4.05;;;14.20;71.20;;;;;;2268494;62;30975;-73
2021/12/11 12:07:26;;;;;;;7.07;4.97;;;14.20;71.90;;;;;;2276503;62;29956;-75
2021/12/11 12:09:52;;;;;;;7.30;5.25;;;14.30;71.90;;;;;;2276529;62;30184;-74
2021/12/11 12:12:18;;;;;;;8.43;7.28;;;14.30;71.80;;;;;;2276314;62;30890;-76
2021/12/11 12:14:44;;;;;;;10.82;7.97;;;14.40;70.90;;;;;;2276583;62;30553;-75
2021/12/11 12:17:13;;;;;;;8.02;6.10;;;14.30;70.10;;;;;;2279701;62;30118;-75
2021/12/11 12:19:39;;;;;;;7.55;6.22;;;14.30;70.50;;;;;;2262465;62;30304;-75
2021/12/11 12:22:08;;;;;;;6.57;5.88;;;14.30;70.70;;;;;;2269111;62;30099;-75
2021/12/11 12:24:35;;;;;;;7.57;5.18;;;14.40;70.80;;;;;;2262386;62;30112;-75
2021/12/11 12:27:02;;;;;;;6.22;4.93;;;14.40;70.90;;;;;;2269068;62;30509;-76
2021/12/11 12:29:28;;;;;;;6.53;5.20;;;14.40;70.90;;;;;;2276517;62;30064;-75
2021/12/11 12:31:59;;;;;;;6.10;4.95;;;14.40;70.90;;;;;;2276309;62;30237;-75
2021/12/11 12:34:26;;;;;;;7.20;4.72;;;14.50;71.00;;;;;;2268854;62;30747;-75
2021/12/11 12:36:52;;;;;;;5.57;4.43;;;14.50;71.10;;;;;;2269360;62;30672;-74
2021/12/11 12:39:21;;;;;;;5.57;4.18;;;14.60;71.00;;;;;;2262050;62;30178;-75
2021/12/11 12:41:58;;;;;;;5.60;4.55;;;14.60;70.90;;;;;;2276380;62;30083;-76
2021/12/11 12:44:24;;;;;;;4.53;3.70;;;14.60;70.80;;;;;;2276418;62;30023;-75
2021/12/11 12:47:11;;;;;;;4.25;3.80;;;14.70;70.80;;;;;;2268733;62;30556;-74
2021/12/11 12:49:40;;;;;;;5.47;4.60;;;14.70;70.70;;;;;;2276520;62;30156;-75
2021/12/11 12:52:18;;;;;;;7.00;3.90;;;14.80;70.80;;;;;;2262187;62;30236;-75
2021/12/11 12:54:44;;;;;;;6.03;3.85;;;14.80;70.80;;;;;;2268855;62;32265;-76
2021/12/11 12:57:19;;;;;;;6.63;4.10;;;14.80;70.80;;;;;;2276248;62;30518;-75
2021/12/11 13:00:12;;;;;;;4.22;3.70;;;14.70;70.80;;;;;;2276295;62;30120;-76
2021/12/11 13:02:40;;;;;;;4.40;3.80;;;14.70;70.80;;;;;;2274792;62;30226;-76
2021/12/11 13:06:04;;;;;;;3.80;3.30;;;14.70;70.80;;;;;;2276778;62;30810;-77
2021/12/11 13:08:37;;;;;;;5.45;3.63;;;14.80;70.70;;;;;;2274684;62;30196;-75
2021/12/11 13:11:06;;;;;;;3.85;3.35;;;14.80;70.70;;;;;;2269289;62;30186;-75
2021/12/11 13:13:32;;;;;;;3.90;3.50;;;14.80;70.70;;;;;;2274465;62;30656;-75
2021/12/11 13:16:11;;;;;;;4.03;3.38;;;14.80;70.70;;;;;;2283053;62;30783;-75
2021/12/11 13:18:43;;;;;;;5.15;3.80;;;14.80;70.80;;;;;;2283242;62;30514;-75
2021/12/11 13:21:29;;;;;;;;;;;14.80;70.90;;;;;;2276294;62;30281;-75
2021/12/11 13:23:56;;;;;;;3.50;3.20;;;14.80;70.90;;;;;;2283154;62;30298;-75
2021/12/11 13:26:29;;;;;;;3.55;3.22;;;14.80;70.90;;;;;;2275990;62;30125;-75
2021/12/11 13:28:56;;;;;;;3.40;3.10;;;14.80;70.90;;;;;;2282622;62;30553;-75
2021/12/11 13:31:32;;;;;;;4.00;3.03;;;14.80;70.80;;;;;;2275465;62;30177;-75
2021/12/11 13:33:59;;;;;;;4.47;2.85;;;14.90;70.80;;;;;;2282322;62;30057;-75
2021/12/11 13:36:26;;;;;;;4.30;3.58;;;14.90;70.80;;;;;;2272975;62;30260;-75
2021/12/11 13:38:52;;;;;;;3.47;3.17;;;14.90;70.80;;;;;;2275767;62;30726;-75
2021/12/11 13:41:24;;;;;;;3.55;3.10;;;14.90;70.90;;;;;;2269496;62;30389;-75
2021/12/11 13:43:50;;;;;;;4.75;3.28;;;14.90;71.00;;;;;;2277873;62;30190;-77
2021/12/11 13:46:16;;;;;;;4.35;3.10;;;14.90;71.00;;;;;;2284572;62;30510;-76
2021/12/11 13:48:42;;;;;;;3.67;3.03;;;14.90;70.90;;;;;;2284371;62;30258;-76
2021/12/11 13:51:23;;;;;;;3.35;3.05;;;14.90;70.80;;;;;;2276761;62;30084;-69
2021/12/11 13:53:49;;;;;;;3.03;2.83;;;15.00;70.80;;;;;;2284269;62;30094;-73
2021/12/11 13:56:22;;;;;;;5.53;3.55;;;14.90;70.80;;;;;;2277565;62;30150;-79
2021/12/11 13:58:48;;;;;;;4.32;3.08;;;15.00;70.90;;;;;;2284577;62;31103;-74
2021/12/11 14:01:20;;;;;;;6.57;3.53;;;15.00;71.00;;;;;;2284868;62;30035;-75
2021/12/11 14:03:48;;;;;;;3.92;2.90;;;15.00;70.80;;;;;;2285160;62;30031;-75
2021/12/11 14:06:14;;;;;;;3.35;2.83;;;15.00;70.70;;;;;;2278052;62;30979;-75
2021/12/11 14:08:42;;;;;;;3.38;2.78;;;15.10;70.60;;;;;;2278033;62;30303;-74
2021/12/11 14:11:09;;;;;;;5.57;2.90;;;15.20;70.50;;;;;;2285205;62;29977;-75
2021/12/11 14:13:35;;;;;;;2.70;2.50;;;15.30;70.40;;;;;;2277978;62;30085;-75
2021/12/11 14:16:01;;;;;;;4.05;2.33;;;15.40;70.40;;;;;;2285272;62;30891;-75
2021/12/11 14:18:27;;;;;;;2.80;2.60;;;15.40;70.20;;;;;;2277751;62;30751;-75
2021/12/11 14:20:54;;;;;;;2.72;2.53;;;15.40;70.10;;;;;;2285435;62;30643;-75
2021/12/11 14:23:29;;;;;;;2.60;2.40;;;15.50;70.00;;;;;;2284755;62;30253;-76
2021/12/11 14:25:58;;;;;;;2.78;2.40;;;15.50;69.90;;;;;;2277628;62;30890;-76
2021/12/11 14:28:25;;;;;;;2.55;2.35;;;15.50;69.90;;;;;;2285329;62;30023;-76
2021/12/11 14:30:54;;;;;;;6.15;2.45;;;15.60;69.90;;;;;;2280731;62;29952;-75
2021/12/11 14:33:21;;;;;;;3.22;2.60;;;15.60;69.80;;;;;;2275603;62;29999;-75
2021/12/11 14:35:48;;;;;;;3.28;2.25;;;15.50;69.70;;;;;;2285843;62;30210;-77
2021/12/11 14:38:13;;;;;;;2.60;2.35;;;15.50;69.70;;;;;;2277900;62;30579;-80
2021/12/11 14:40:40;;;;;;;3.08;2.60;;;15.50;69.80;;;;;;2277713;62;30220;-76
2021/12/11 14:43:06;;;;;;;2.63;2.40;;;15.50;69.80;;;;;;2285093;62;30251;-77
2021/12/11 14:45:34;;;;;;;2.50;2.30;;;15.50;69.80;;;;;;2277817;62;30629;-77
2021/12/11 14:47:59;;;;;;;3.63;3.03;;;15.50;69.90;;;;;;2277567;62;30191;-75
2021/12/11 14:50:35;;;;;;;2.75;2.55;;;15.40;69.80;;;;;;2285299;62;30256;-75
2021/12/11 14:53:01;;;;;;;4.28;2.67;;;15.40;69.90;;;;;;2271113;62;30210;-77
2021/12/11 14:55:39;;;;;;;2.80;2.60;;;15.40;69.90;;;;;;2277796;62;30016;-78
2021/12/11 14:58:04;;;;;;;2.60;2.40;;;15.40;69.90;;;;;;2285059;62;30900;-77
2021/12/11 15:00:31;;;;;;;3.05;2.55;;;15.40;70.00;;;;;;2277497;62;30146;-76
2021/12/11 15:02:57;;;;;;;2.50;2.30;;;15.30;70.00;;;;;;2270978;62;30236;-75
2021/12/11 15:05:30;;;;;;;2.50;2.30;;;15.30;70.10;;;;;;2277810;62;31381;-80
2021/12/11 15:07:58;;;;;;;3.70;2.85;;;15.30;70.10;;;;;;2277503;62;30475;-80
2021/12/11 15:10:29;;;;;;;2.40;2.20;;;15.30;70.20;;;;;;2277817;62;29979;-81
2021/12/11 15:12:55;;;;;;;2.67;2.47;;;15.20;70.10;;;;;;2285129;62;30183;-81
2021/12/11 15:15:21;;;;;;;2.65;2.45;;;15.20;70.20;;;;;;2277435;62;31276;-80
2021/12/11 15:17:47;;;;;;;2.85;2.55;;;15.20;70.30;;;;;;2285032;62;30554;-80
2021/12/11 15:20:25;;;;;;;2.80;2.60;;;15.20;70.30;;;;;;2284949;62;30007;-81
2021/12/11 15:22:51;;;;;;;2.95;2.65;;;15.20;70.30;;;;;;2277331;62;30286;-80
2021/12/11 15:25:17;;;;;;;2.53;2.33;;;15.20;70.40;;;;;;2284926;62;30182;-81
2021/12/11 15:27:43;;;;;;;3.90;2.47;;;15.20;70.50;;;;;;2277552;62;30386;-80
2021/12/11 15:30:15;;;;;;;2.90;2.47;;;15.20;70.50;;;;;;2277261;62;30116;-76
2021/12/11 15:32:41;;;;;;;;;;;15.20;70.50;;;;;;2285416;62;30201;-79
2021/12/11 15:35:09;;;;;;;4.45;2.42;;;15.30;70.40;;;;;;2284869;62;30103;-78
2021/12/11 15:37:37;;;;;;;3.25;2.50;;;15.30;70.40;;;;;;2285000;62;30772;-79
2021/12/11 15:40:09;;;;;;;2.88;2.33;;;15.40;70.50;;;;;;2284877;62;29954;-77
2021/12/11 15:42:35;;;;;;;2.67;2.42;;;15.40;70.40;;;;;;2284686;62;30338;-84
2021/12/11 15:45:02;;;;;;;3.05;2.72;;;15.40;70.40;;;;;;2284873;62;30768;-81
2021/12/11 15:47:29;;;;;;;2.78;2.30;;;15.40;70.40;;;;;;2277486;62;30558;-80
2021/12/11 15:49:55;;;;;;;2.40;2.20;;;15.40;70.30;;;;;;2277258;62;29964;-80
2021/12/11 15:52:21;;;;;;;2.30;2.10;;;15.40;70.30;;;;;;2284793;62;30107;-79
2021/12/11 15:54:47;;;;;;;2.42;2.22;;;15.40;70.30;;;;;;2270631;62;30259;-75
2021/12/11 15:57:14;;;;;;;2.53;2.17;;;15.40;70.30;;;;;;2284337;62;30103;-78
2021/12/11 15:59:42;;;;;;;3.03;2.50;;;15.40;71.00;;;;;;2284368;62;30302;-77
2021/12/11 16:02:08;;;;;;;2.63;2.40;;;15.40;70.30;;;;;;2270364;62;30081;-78
2021/12/11 16:04:34;;;;;;;3.85;2.55;;;15.50;70.30;;;;;;2277129;62;30375;-81
2021/12/11 16:07:04;;;;;;;3.33;2.80;;;15.40;70.30;;;;;;2270761;62;30190;-78
2021/12/11 16:09:30;;;;;;;3.40;2.40;;;15.40;70.30;;;;;;2284817;62;30123;-78
2021/12/11 16:12:01;;;;;;;3.00;2.63;;;15.50;70.40;;;;;;2284240;62;30277;-80
2021/12/11 16:14:26;;;;;;;2.70;2.50;;;15.40;70.40;;;;;;2284699;62;30131;-80
2021/12/11 16:16:54;;;;;;;2.78;2.58;;;15.50;70.40;;;;;;2270467;62;31761;-80
2021/12/11 16:19:25;;;;;;;2.67;2.47;;;15.50;70.40;;;;;;2284489;62;30150;-80
2021/12/11 16:21:51;;;;;;;5.65;2.70;;;15.40;71.10;;;;;;2277420;62;30222;-77
2021/12/11 16:24:17;;;;;;;2.92;2.72;;;15.50;70.40;;;;;;2276853;62;30109;-76
2021/12/11 16:26:43;;;;;;;3.05;2.53;;;15.50;70.30;;;;;;2284516;62;30157;-76
2021/12/11 16:29:09;;;;;;;2.75;2.40;;;15.60;70.30;;;;;;2284705;62;30611;-78
2021/12/11 16:31:36;;;;;;;2.60;2.40;;;15.60;70.20;;;;;;2284352;62;30193;-77
2021/12/11 16:34:06;;;;;;;4.47;2.90;;;15.70;70.10;;;;;;2284515;62;30102;-80
2021/12/11 16:36:36;;;;;;;3.08;2.78;;;15.80;70.10;;;;;;2270663;62;30559;-77
2021/12/11 16:39:03;;;;;;;3.60;2.50;;;15.90;69.90;;;;;;2270027;62;30142;-78
2021/12/11 16:41:42;;;;;;;4.75;2.58;;;16.00;69.80;;;;;;2277280;62;30227;-78
2021/12/11 16:44:10;;;;;;;3.03;2.30;;;16.00;69.70;;;;;;2284728;62;30107;-76
2021/12/11 16:46:56;;;;;;;2.83;2.50;;;16.10;69.60;;;;;;2282038;62;30620;-77
2021/12/11 16:49:25;;;;;;;3.50;2.63;;;16.10;69.40;;;;;;2268809;62;30218;-78
2021/12/11 16:51:53;;;;;;;3.03;2.63;;;16.20;69.40;;;;;;2275071;62;30166;-87
2021/12/11 16:54:19;;;;;;;2.95;2.22;;;16.20;69.60;;;;;;2277491;62;30248;-80
2021/12/11 16:56:45;;;;;;;7.03;2.60;;;16.30;69.30;;;;;;2282939;62;30023;-79
2021/12/11 16:59:11;;;;;;;2.58;2.38;;;16.30;69.10;;;;;;2283550;62;30201;-80
2021/12/11 17:01:40;;;;;;;4.35;2.55;;;16.30;69.00;;;;;;2283021;62;30070;-78
2021/12/11 17:04:06;;;;;;;2.72;2.53;;;16.30;69.70;;;;;;2282420;62;30126;-76
2021/12/11 17:06:37;;;;;;;4.18;2.63;;;16.40;68.90;;;;;;2283070;62;30029;-76
2021/12/11 17:09:06;;;;;;;2.83;2.63;;;16.40;68.90;;;;;;2276011;62;30278;-79
2021/12/11 17:11:33;;;;;;;3.42;2.63;;;16.40;68.90;;;;;;2283277;62;30146;-78
2021/12/11 17:13:59;;;;;;;3.72;2.85;;;16.40;68.80;;;;;;2274652;62;30853;-78
2021/12/11 17:16:26;;;;;;;3.85;2.72;;;16.40;68.70;;;;;;2277425;62;30230;-76
2021/12/11 17:18:52;;;;;;;3.80;2.72;;;16.40;68.60;;;;;;2270497;62;30067;-76
2021/12/11 17:21:18;;;;;;;3.13;2.78;;;16.40;68.60;;;;;;2275889;62;30087;-76
2021/12/11 17:23:44;;;;;;;2.85;2.42;;;16.50;68.60;;;;;;2275169;62;30393;-77
2021/12/11 17:26:10;;;;;;;3.72;2.72;;;16.50;68.60;;;;;;2283917;62;30645;-76
2021/12/11 17:28:46;;;;;;;3.22;2.85;;;16.50;68.50;;;;;;2269495;62;30418;-81
2021/12/11 17:31:12;;;;;;;2.75;2.55;;;16.50;68.40;;;;;;2284183;62;30186;-78
2021/12/11 17:33:38;;;;;;;5.50;2.72;;;16.50;68.40;;;;;;2277229;62;30136;-76
2021/12/11 17:36:04;;;;;;;3.60;3.15;;;16.50;68.40;;;;;;2276855;62;30248;-76
2021/12/11 17:38:30;;;;;;;3.88;3.15;;;16.50;68.50;;;;;;2277167;62;29965;-76
2021/12/11 17:40:56;;;;;;;5.55;3.60;;;16.50;68.60;;;;;;2284414;62;30915;-76
2021/12/11 17:43:22;;;;;;;9.38;4.57;;;16.40;68.70;;;;;;2284383;62;29962;-75
2021/12/11 17:45:48;;;;;;;14.15;5.35;;;16.40;68.60;;;;;;2284447;62;30761;-74
2021/12/11 17:48:15;;;;;;;21.20;6.63;;;16.40;68.50;;;;;;2284569;62;29951;-75
2021/12/11 17:50:53;;;;;;;16.27;6.38;;;16.30;68.80;;;;;;2263675;62;30195;-74
2021/12/11 17:53:19;;;;;;;20.10;7.18;;;16.20;69.10;;;;;;2268414;62;30270;-75
2021/12/11 17:55:46;;;;;;;16.20;5.80;;;16.20;69.20;;;;;;2276602;62;30088;-75
2021/12/11 17:58:23;;;;;;;17.33;6.50;;;16.20;69.20;;;;;;2276894;62;30809;-77
2021/12/11 18:01:06;;;;;;;21.15;6.68;;;16.20;69.30;;;;;;2276968;62;30179;-75
2021/12/11 18:03:32;;;;;;;16.75;6.05;;;16.20;69.30;;;;;;2284105;62;30601;-75
2021/12/11 18:06:00;;;;;;;13.52;5.22;;;16.20;69.20;;;;;;2283563;62;30641;-76
2021/12/11 18:08:27;;;;;;;12.38;5.63;;;16.20;69.30;;;;;;2284221;62;30129;-76
2021/12/11 18:11:19;;;;;;;13.90;5.47;;;16.20;69.30;;;;;;2284076;62;30059;-74
2021/12/11 18:13:54;;;;;;;13.15;5.32;;;16.20;69.30;;;;;;2264783;62;31086;-74
2021/12/11 18:16:22;;;;;;;9.70;5.00;;;16.20;69.30;;;;;;2284209;62;30029;-74
2021/12/11 18:19:00;;;;;;;9.23;5.28;;;16.20;69.30;;;;;;2276712;62;30106;-74
2021/12/11 18:21:35;;;;;;;11.40;5.00;;;16.20;69.30;;;;;;2284262;62;30156;-74
2021/12/11 18:24:01;;;;;;;11.20;5.40;;;16.20;69.30;;;;;;2276903;62;30013;-74
2021/12/11 18:26:32;;;;;;;8.57;4.30;;;16.20;69.30;;;;;;2283292;62;30106;-73
2021/12/11 18:28:59;;;;;;;7.53;4.72;;;16.20;69.20;;;;;;2283521;62;30255;-80
2021/12/11 18:31:28;;;;;;;10.98;4.90;;;16.20;69.20;;;;;;2282474;62;30387;-80
2021/12/11 18:33:55;;;;;;;7.85;4.70;;;16.20;69.20;;;;;;2282380;62;31102;-77
2021/12/11 18:36:26;;;;;;;6.05;4.15;;;16.20;69.20;;;;;;2275865;62;31942;-76
2021/12/11 18:38:52;;;;;;;6.27;4.40;;;16.30;69.10;;;;;;2276763;62;30013;-80
2021/12/11 18:41:27;;;;;;;7.85;4.18;;;16.40;69.10;;;;;;2268905;62;30119;-79
2021/12/11 18:43:54;;;;;;;5.43;4.25;;;16.40;69.00;;;;;;2273319;62;30139;-80
2021/12/11 18:46:22;;;;;;;6.72;3.67;;;16.50;69.00;;;;;;2283730;62;29999;-77
2021/12/11 18:48:48;;;;;;;7.45;4.03;;;16.50;68.90;;;;;;2272777;62;31669;-78
2021/12/11 18:51:23;;;;;;;8.10;3.92;;;16.60;68.90;;;;;;2269529;62;30172;-79
2021/12/11 18:53:52;;;;;;;5.40;3.58;;;16.60;68.70;;;;;;2283708;62;30869;-79
2021/12/11 18:56:18;;;;;;;5.40;3.78;;;16.60;68.60;;;;;;2284000;62;30624;-81
2021/12/11 18:58:45;;;;;;;5.38;3.42;;;16.70;68.60;;;;;;2276559;62;30090;-80
2021/12/11 19:01:18;;;;;;;4.82;3.47;;;16.70;68.50;;;;;;2276070;62;30082;-80
2021/12/11 19:03:48;;;;;;;4.00;3.22;;;16.70;68.50;;;;;;2283855;62;30675;-79
2021/12/11 19:06:22;;;;;;;3.90;3.28;;;16.60;68.40;;;;;;2276262;62;30115;-80
2021/12/11 19:08:48;;;;;;;5.40;3.20;;;16.70;68.40;;;;;;2269683;62;30165;-80
2021/12/11 19:11:21;;;;;;;4.72;3.15;;;16.70;68.50;;;;;;2276544;62;30395;-80
2021/12/11 19:13:47;;;;;;;3.72;3.42;;;16.60;68.50;;;;;;2283620;62;30158;-79
2021/12/11 19:16:13;;;;;;;5.15;3.28;;;16.60;68.50;;;;;;2269804;62;30232;-80
2021/12/11 19:18:39;;;;;;;3.50;2.97;;;16.60;68.60;;;;;;2276499;62;30282;-81
2021/12/11 19:21:22;;;;;;;3.78;3.10;;;16.60;68.60;;;;;;2283685;62;30511;-80
2021/12/11 19:23:49;;;;;;;3.10;2.80;;;16.60;68.60;;;;;;2276859;62;31032;-80
2021/12/11 19:26:15;;;;;;;3.67;2.75;;;16.60;68.70;;;;;;2269769;62;30744;-80
2021/12/11 19:28:41;;;;;;;3.38;3.05;;;16.60;68.80;;;;;;2283563;62;30279;-80
2021/12/11 19:31:15;;;;;;;4.88;3.30;;;16.50;68.80;;;;;;2276343;62;30114;-80
2021/12/11 19:33:43;;;;;;;4.30;3.10;;;16.50;68.80;;;;;;2276243;62;30861;-80
2021/12/11 19:36:12;;;;;;;3.58;2.80;;;16.50;68.90;;;;;;2283587;62;30076;-81
2021/12/11 19:38:38;;;;;;;3.13;2.83;;;16.50;68.90;;;;;;2283379;62;30197;-80
2021/12/11 19:41:05;;;;;;;3.50;2.88;;;16.50;68.90;;;;;;2276278;62;29995;-79
2021/12/11 19:43:30;;;;;;;4.40;2.83;;;16.50;68.90;;;;;;2283475;62;30142;-79
2021/12/11 19:45:57;;;;;;;3.08;2.83;;;16.50;68.90;;;;;;2283108;62;30270;-80
2021/12/11 19:48:23;;;;;;;3.83;2.83;;;16.50;68.90;;;;;;2274555;62;30843;-81
2021/12/11 19:50:50;;;;;;;3.42;2.97;;;16.50;68.90;;;;;;2282239;62;30633;-80
2021/12/11 19:53:18;;;;;;;3.65;2.70;;;16.50;68.90;;;;;;2271847;62;30797;-80
2021/12/11 19:55:47;;;;;;;3.10;2.90;;;16.50;68.80;;;;;;2271522;62;30159;-81
2021/12/11 19:58:13;;;;;;;3.22;2.92;;;16.50;68.80;;;;;;2266916;62;30109;-81
2021/12/11 20:00:43;;;;;;;3.00;2.70;;;16.50;68.80;;;;;;2267120;62;30637;-81
2021/12/11 20:03:12;;;;;;;3.00;2.70;;;16.50;68.80;;;;;;2266555;62;29989;-81
2021/12/11 20:05:47;;;;;;;3.00;2.70;;;16.50;68.80;;;;;;2267190;62;30258;-81
2021/12/11 20:08:18;;;;;;;2.60;2.40;;;16.50;68.70;;;;;;2267174;62;30019;-81
2021/12/11 20:10:47;;;;;;;3.30;2.80;;;16.50;68.80;;;;;;2266446;62;30100;-81
2021/12/11 20:13:17;;;;;;;2.83;2.63;;;16.50;68.80;;;;;;2267115;62;30251;-76
2021/12/11 20:15:48;;;;;;;19.70;3.28;;;16.50;68.80;;;;;;2267007;62;30537;-76
2021/12/11 20:18:21;;;;;;;2.80;2.60;;;16.50;68.80;;;;;;2266644;62;30165;-76
2021/12/11 20:20:49;;;;;;;2.97;2.58;;;16.50;68.70;;;;;;2267054;62;30133;-77
2021/12/11 20:23:16;;;;;;;2.63;2.42;;;16.60;68.70;;;;;;2267149;62;30965;-76
2021/12/11 20:25:42;;;;;;;3.17;2.72;;;16.70;68.60;;;;;;2259713;62;30720;-77
2021/12/11 20:28:09;;;;;;;2.85;2.60;;;16.80;68.60;;;;;;2267157;62;30276;-75
2021/12/11 20:30:40;;;;;;;2.97;2.50;;;16.90;68.50;;;;;;2266832;62;29982;-75
2021/12/11 20:33:08;;;;;;;2.50;2.30;;;17.00;68.40;;;;;;2264921;62;30110;-76
2021/12/11 20:35:39;;;;;;;2.78;2.58;;;17.00;68.20;;;;;;2258360;63;30436;-76
2021/12/11 20:38:05;;;;;;;3.13;2.22;;;17.10;68.10;;;;;;2258237;63;30080;-76
2021/12/11 20:40:35;;;;;;;2.50;2.30;;;17.20;68.10;;;;;;2258329;63;30549;-76
2021/12/11 20:43:03;;;;;;;2.60;2.40;;;17.20;68.00;;;;;;2258761;62;30192;-78
2021/12/11 20:45:31;;;;;;;2.40;2.30;;;17.20;67.90;;;;;;2258577;62;30651;-78
2021/12/11 20:47:57;;;;;;;3.42;2.53;;;17.20;67.80;;;;;;2258782;62;30196;-81
2021/12/11 20:50:36;;;;;;;2.72;2.50;;;17.30;67.70;;;;;;2258219;63;30196;-79
2021/12/11 20:53:03;;;;;;;2.55;2.20;;;17.30;67.50;;;;;;2263600;62;31916;-80
2021/12/11 20:55:34;;;;;;;2.88;2.63;;;17.30;67.60;;;;;;2274928;62;30763;-77
2021/12/11 20:58:02;;;;;;;2.80;2.60;;;17.30;67.70;;;;;;2275247;62;30015;-78
2021/12/11 21:00:35;;;;;;;3.67;2.60;;;17.30;67.70;;;;;;2281976;62;30184;-78
2021/12/11 21:03:16;;;;;;;2.72;2.53;;;17.20;67.70;;;;;;2282101;62;30307;-77
2021/12/11 21:05:49;;;;;;;3.03;2.72;;;17.20;67.70;;;;;;2267852;62;30805;-77
2021/12/11 21:08:15;;;;;;;2.92;2.70;;;17.20;67.70;;;;;;2275442;62;30143;-78
2021/12/11 21:10:45;;;;;;;2.92;2.72;;;17.20;67.60;;;;;;2279982;62;30128;-78
2021/12/11 21:13:18;;;;;;;2.65;2.45;;;17.20;67.60;;;;;;2283554;62;30014;-76
2021/12/11 21:15:53;;;;;;;3.15;2.58;;;17.30;67.80;;;;;;2282850;62;30474;-78
2021/12/11 21:18:20;;;;;;;2.50;2.30;;;17.30;67.40;;;;;;2280838;62;30312;-82
2021/12/11 21:20:51;;;;;;;2.40;2.30;;;17.40;67.30;;;;;;2278459;62;30178;-81
2021/12/11 21:23:20;;;;;;;2.60;2.40;;;17.40;67.20;;;;;;2273752;62;30901;-81
2021/12/11 21:25:53;;;;;;;2.25;2.15;;;17.40;67.10;;;;;;2281199;62;30228;-79
2021/12/11 21:28:22;;;;;;;2.42;2.30;;;17.50;67.10;;;;;;2275499;62;30572;-79
2021/12/11 21:30:51;;;;;;;2.92;2.58;;;17.50;67.00;;;;;;2282231;62;29974;-81
2021/12/11 21:33:19;;;;;;;2.50;2.35;;;17.40;66.90;;;;;;2273161;62;30262;-82
2021/12/11 21:35:46;;;;;;;2.50;2.30;;;17.50;66.90;;;;;;2282471;62;30926;-82
2021/12/11 21:38:13;;;;;;;2.40;2.20;;;17.50;66.80;;;;;;2280178;62;32268;-82
2021/12/11 21:40:46;;;;;;;3.05;2.75;;;17.50;66.70;;;;;;2281324;62;30401;-81
2021/12/11 21:43:14;;;;;;;2.60;2.40;;;17.50;66.60;;;;;;2280125;62;30442;-85
2021/12/11 21:45:52;;;;;;;2.30;2.20;;;17.60;66.50;;;;;;2274822;62;30099;-83
2021/12/11 21:48:21;;;;;;;2.95;2.50;;;17.60;66.50;;;;;;2267611;62;30095;-84
2021/12/11 21:51:00;;;;;;;2.60;2.40;;;17.60;66.50;;;;;;2274633;62;30159;-81
2021/12/11 21:53:27;;;;;;;3.10;2.53;;;17.60;66.30;;;;;;2260484;62;30859;-76
2021/12/11 21:55:54;;;;;;;2.55;2.42;;;17.60;66.40;;;;;;2267065;62;30146;-76